sensor_id;sensor_type;location;lat;lon;timestamp;temperature;humidity
1760;DHT22;877;46.266;20.062;2023-07-31T00:02:15;19.40;100.00
1760;DHT22;877;46.266;20.062;2023-07-31T00:04:41;19.40;100.00
1760;DHT22;877;46.266;20.062;2023-07-31T00:07:07;19.30;100.00
1760;DHT22;877;46.266;20.062;2023-07-31T00:09:33;19.20;100.00
1760;DHT22;877;46.266;20.062;2023-07-31T00:11:59;19.20;100.00
1760;DHT22;877;46.266;20.062;2023-07-31T00:14:25;19.20;100.00
1760;DHT22;877;46.266;20.062;2023-07-31T00:16:51;19.20;100.00
1760;DHT22;877;46.266;20.062;2023-07-31T00:19:17;19.20;100.00
1760;DHT22;877;46.266;20.062;2023-07-31T00:21:44;19.10;100.00
1760;DHT22;877;46.266;20.062;2023-07-31T00:24:10;19.10;100.00
1760;DHT22;877;46.266;20.062;2023-07-31T00:26:36;19.20;100.00
1760;DHT22;877;46.266;20.062;2023-07-31T00:29:01;19.00;100.00
1760;DHT22;877;46.266;20.062;2023-07-31T00:31:27;19.00;100.00
1760;DHT22;877;46.266;20.062;2023-07-31T00:33:53;19.00;100.00
1760;DHT22;877;46.266;20.062;2023-07-31T00:36:19;19.00;100.00
1760;DHT22;877;46.266;20.062;2023-07-31T00:38:45;18.90;100.00
1760;DHT22;877;46.266;20.062;2023-07-31T00:41:11;19.00;100.00
1760;DHT22;877;46.266;20.062;2023-07-31T00:43:36;19.00;100.00
1760;DHT22;877;46.266;20.062;2023-07-31T00:46:02;19.20;100.00
1760;DHT22;877;46.266;20.062;2023-07-31T00:48:28;19.10;100.00
1760;DHT22;877;46.266;20.062;2023-07-31T00:50:54;19.10;100.00
1760;DHT22;877;46.266;20.062;2023-07-31T00:53:20;19.10;100.00
1760;DHT22;877;46.266;20.062;2023-07-31T00:55:46;19.30;100.00
1760;DHT22;877;46.266;20.062;2023-07-31T00:58:13;19.50;100.00
1760;DHT22;877;46.266;20.062;2023-07-31T01:00:38;19.40;100.00
1760;DHT22;877;46.266;20.062;2023-07-31T01:03:05;19.20;100.00
1760;DHT22;877;46.266;20.062;2023-07-31T01:08:54;19.00;100.00
1760;DHT22;877;46.266;20.062;2023-07-31T01:11:31;18.90;100.00
1760;DHT22;877;46.266;20.062;2023-07-31T01:13:58;18.90;100.00
1760;DHT22;877;46.266;20.062;2023-07-31T01:16:29;19.10;100.00
1760;DHT22;877;46.266;20.062;2023-07-31T01:18:54;18.90;100.00
1760;DHT22;877;46.266;20.062;2023-07-31T01:26:45;18.80;100.00
1760;DHT22;877;46.266;20.062;2023-07-31T01:32:02;18.80;100.00
1760;DHT22;877;46.266;20.062;2023-07-31T01:34:29;18.70;100.00
1760;DHT22;877;46.266;20.062;2023-07-31T01:36:56;18.70;100.00
1760;DHT22;877;46.266;20.062;2023-07-31T01:39:24;18.70;100.00
1760;DHT22;877;46.266;20.062;2023-07-31T01:41:50;18.90;100.00
1760;DHT22;877;46.266;20.062;2023-07-31T01:44:15;19.10;100.00
1760;DHT22;877;46.266;20.062;2023-07-31T01:46:41;19.20;100.00
1760;DHT22;877;46.266;20.062;2023-07-31T01:49:07;19.20;100.00
1760;DHT22;877;46.266;20.062;2023-07-31T01:51:33;19.00;100.00
1760;DHT22;877;46.266;20.062;2023-07-31T01:54:02;19.00;100.00
1760;DHT22;877;46.266;20.062;2023-07-31T01:56:28;19.00;100.00
1760;DHT22;877;46.266;20.062;2023-07-31T01:58:55;18.80;100.00
1760;DHT22;877;46.266;20.062;2023-07-31T02:01:21;18.50;100.00
1760;DHT22;877;46.266;20.062;2023-07-31T02:03:46;18.30;100.00
1760;DHT22;877;46.266;20.062;2023-07-31T02:06:12;18.30;100.00
1760;DHT22;877;46.266;20.062;2023-07-31T02:08:38;18.30;100.00
1760;DHT22;877;46.266;20.062;2023-07-31T02:11:04;18.20;100.00
1760;DHT22;877;46.266;20.062;2023-07-31T02:13:30;18.20;100.00
1760;DHT22;877;46.266;20.062;2023-07-31T02:15:55;18.00;100.00
1760;DHT22;877;46.266;20.062;2023-07-31T02:18:21;18.00;100.00
1760;DHT22;877;46.266;20.062;2023-07-31T02:20:51;17.90;100.00
1760;DHT22;877;46.266;20.062;2023-07-31T02:23:18;17.90;100.00
1760;DHT22;877;46.266;20.062;2023-07-31T02:25:44;17.80;100.00
1760;DHT22;877;46.266;20.062;2023-07-31T02:28:10;17.80;100.00
1760;DHT22;877;46.266;20.062;2023-07-31T02:30:36;17.80;100.00
1760;DHT22;877;46.266;20.062;2023-07-31T02:33:02;17.90;100.00
1760;DHT22;877;46.266;20.062;2023-07-31T02:35:28;17.80;100.00
1760;DHT22;877;46.266;20.062;2023-07-31T02:37:54;17.90;100.00
1760;DHT22;877;46.266;20.062;2023-07-31T02:40:22;17.90;100.00
1760;DHT22;877;46.266;20.062;2023-07-31T02:42:50;17.90;100.00
1760;DHT22;877;46.266;20.062;2023-07-31T02:45:16;17.80;100.00
1760;DHT22;877;46.266;20.062;2023-07-31T02:47:42;17.70;100.00
1760;DHT22;877;46.266;20.062;2023-07-31T02:50:08;17.70;100.00
1760;DHT22;877;46.266;20.062;2023-07-31T02:52:34;17.70;100.00
1760;DHT22;877;46.266;20.062;2023-07-31T02:55:00;17.80;100.00
1760;DHT22;877;46.266;20.062;2023-07-31T02:57:26;17.80;100.00
1760;DHT22;877;46.266;20.062;2023-07-31T02:59:52;17.80;100.00
1760;DHT22;877;46.266;20.062;2023-07-31T03:02:17;17.80;100.00
1760;DHT22;877;46.266;20.062;2023-07-31T03:04:43;17.80;100.00
1760;DHT22;877;46.266;20.062;2023-07-31T03:07:09;17.80;100.00
1760;DHT22;877;46.266;20.062;2023-07-31T03:09:35;17.80;100.00
1760;DHT22;877;46.266;20.062;2023-07-31T03:12:01;17.80;100.00
1760;DHT22;877;46.266;20.062;2023-07-31T03:14:26;17.80;100.00
1760;DHT22;877;46.266;20.062;2023-07-31T03:16:53;17.90;100.00
1760;DHT22;877;46.266;20.062;2023-07-31T03:19:19;17.80;100.00
1760;DHT22;877;46.266;20.062;2023-07-31T03:21:44;17.80;100.00
1760;DHT22;877;46.266;20.062;2023-07-31T03:24:10;17.80;100.00
1760;DHT22;877;46.266;20.062;2023-07-31T03:26:38;17.80;100.00
1760;DHT22;877;46.266;20.062;2023-07-31T03:29:08;17.80;100.00
1760;DHT22;877;46.266;20.062;2023-07-31T03:31:35;17.90;100.00
1760;DHT22;877;46.266;20.062;2023-07-31T03:34:02;17.90;100.00
1760;DHT22;877;46.266;20.062;2023-07-31T03:36:27;17.90;100.00
1760;DHT22;877;46.266;20.062;2023-07-31T03:38:53;17.80;100.00
1760;DHT22;877;46.266;20.062;2023-07-31T03:41:19;17.90;100.00
1760;DHT22;877;46.266;20.062;2023-07-31T03:43:49;17.80;100.00
1760;DHT22;877;46.266;20.062;2023-07-31T03:46:15;17.80;100.00
1760;DHT22;877;46.266;20.062;2023-07-31T03:48:41;17.80;100.00
1760;DHT22;877;46.266;20.062;2023-07-31T03:51:06;17.80;100.00
1760;DHT22;877;46.266;20.062;2023-07-31T03:53:32;17.90;100.00
1760;DHT22;877;46.266;20.062;2023-07-31T03:55:58;17.90;100.00
1760;DHT22;877;46.266;20.062;2023-07-31T03:58:24;18.00;100.00
1760;DHT22;877;46.266;20.062;2023-07-31T04:00:50;18.00;100.00
1760;DHT22;877;46.266;20.062;2023-07-31T04:03:15;18.00;100.00
1760;DHT22;877;46.266;20.062;2023-07-31T04:05:41;18.10;100.00
1760;DHT22;877;46.266;20.062;2023-07-31T04:08:07;18.10;100.00
1760;DHT22;877;46.266;20.062;2023-07-31T04:10:33;18.20;100.00
1760;DHT22;877;46.266;20.062;2023-07-31T04:13:00;18.30;100.00
1760;DHT22;877;46.266;20.062;2023-07-31T04:15:27;18.40;100.00
1760;DHT22;877;46.266;20.062;2023-07-31T04:17:53;18.30;100.00
1760;DHT22;877;46.266;20.062;2023-07-31T04:20:18;18.40;100.00
1760;DHT22;877;46.266;20.062;2023-07-31T04:22:44;18.60;100.00
1760;DHT22;877;46.266;20.062;2023-07-31T04:25:10;18.60;100.00
1760;DHT22;877;46.266;20.062;2023-07-31T04:27:37;18.70;100.00
1760;DHT22;877;46.266;20.062;2023-07-31T04:30:03;18.70;100.00
1760;DHT22;877;46.266;20.062;2023-07-31T04:32:29;18.80;100.00
1760;DHT22;877;46.266;20.062;2023-07-31T04:34:55;18.90;100.00
1760;DHT22;877;46.266;20.062;2023-07-31T04:37:21;18.90;100.00
1760;DHT22;877;46.266;20.062;2023-07-31T04:39:47;18.90;100.00
1760;DHT22;877;46.266;20.062;2023-07-31T04:42:12;19.00;100.00
1760;DHT22;877;46.266;20.062;2023-07-31T04:44:38;19.00;100.00
1760;DHT22;877;46.266;20.062;2023-07-31T04:47:04;19.20;100.00
1760;DHT22;877;46.266;20.062;2023-07-31T04:49:31;19.20;100.00
1760;DHT22;877;46.266;20.062;2023-07-31T04:51:57;19.20;100.00
1760;DHT22;877;46.266;20.062;2023-07-31T04:54:22;19.30;100.00
1760;DHT22;877;46.266;20.062;2023-07-31T04:56:49;19.40;100.00
1760;DHT22;877;46.266;20.062;2023-07-31T04:59:15;19.50;100.00
1760;DHT22;877;46.266;20.062;2023-07-31T05:01:41;19.50;100.00
1760;DHT22;877;46.266;20.062;2023-07-31T05:04:07;19.60;99.80
1760;DHT22;877;46.266;20.062;2023-07-31T05:06:32;19.60;99.30
1760;DHT22;877;46.266;20.062;2023-07-31T05:08:58;19.60;99.40
1760;DHT22;877;46.266;20.062;2023-07-31T05:11:24;19.80;98.30
1760;DHT22;877;46.266;20.062;2023-07-31T05:13:50;19.80;98.50
1760;DHT22;877;46.266;20.062;2023-07-31T05:16:16;19.90;97.40
1760;DHT22;877;46.266;20.062;2023-07-31T05:18:42;19.90;97.30
1760;DHT22;877;46.266;20.062;2023-07-31T05:21:07;19.90;97.30
1760;DHT22;877;46.266;20.062;2023-07-31T05:23:33;20.00;95.50
1760;DHT22;877;46.266;20.062;2023-07-31T05:26:06;20.10;95.40
1760;DHT22;877;46.266;20.062;2023-07-31T05:28:35;20.20;94.50
1760;DHT22;877;46.266;20.062;2023-07-31T05:31:01;20.30;94.50
1760;DHT22;877;46.266;20.062;2023-07-31T05:33:27;20.30;93.30
1760;DHT22;877;46.266;20.062;2023-07-31T05:35:53;20.40;93.10
1760;DHT22;877;46.266;20.062;2023-07-31T05:38:19;20.50;92.90
1760;DHT22;877;46.266;20.062;2023-07-31T05:40:45;20.40;92.10
1760;DHT22;877;46.266;20.062;2023-07-31T05:43:10;20.40;92.40
1760;DHT22;877;46.266;20.062;2023-07-31T05:45:36;20.50;93.00
1760;DHT22;877;46.266;20.062;2023-07-31T05:48:03;20.60;90.90
1760;DHT22;877;46.266;20.062;2023-07-31T05:50:29;20.70;89.80
1760;DHT22;877;46.266;20.062;2023-07-31T05:52:55;20.80;87.60
1760;DHT22;877;46.266;20.062;2023-07-31T05:55:21;20.80;88.50
1760;DHT22;877;46.266;20.062;2023-07-31T05:57:46;20.90;87.50
1760;DHT22;877;46.266;20.062;2023-07-31T06:00:13;21.10;88.50
1760;DHT22;877;46.266;20.062;2023-07-31T06:02:39;21.10;88.10
1760;DHT22;877;46.266;20.062;2023-07-31T06:05:05;21.10;88.00
1760;DHT22;877;46.266;20.062;2023-07-31T06:07:34;21.10;86.50
1760;DHT22;877;46.266;20.062;2023-07-31T06:10:00;21.20;86.70
1760;DHT22;877;46.266;20.062;2023-07-31T06:12:35;21.40;87.20
1760;DHT22;877;46.266;20.062;2023-07-31T06:15:02;21.60;84.70
1760;DHT22;877;46.266;20.062;2023-07-31T06:17:28;21.50;86.00
1760;DHT22;877;46.266;20.062;2023-07-31T06:19:56;21.50;83.60
1760;DHT22;877;46.266;20.062;2023-07-31T06:22:22;21.70;83.70
1760;DHT22;877;46.266;20.062;2023-07-31T06:24:48;21.90;82.70
1760;DHT22;877;46.266;20.062;2023-07-31T06:27:14;22.00;82.90
1760;DHT22;877;46.266;20.062;2023-07-31T06:29:40;21.80;82.90
1760;DHT22;877;46.266;20.062;2023-07-31T06:32:06;22.00;81.70
1760;DHT22;877;46.266;20.062;2023-07-31T06:34:32;22.10;81.30
1760;DHT22;877;46.266;20.062;2023-07-31T06:36:58;22.20;79.80
1760;DHT22;877;46.266;20.062;2023-07-31T06:39:24;22.20;80.10
1760;DHT22;877;46.266;20.062;2023-07-31T06:41:50;22.10;80.80
1760;DHT22;877;46.266;20.062;2023-07-31T06:44:16;22.20;79.70
1760;DHT22;877;46.266;20.062;2023-07-31T06:46:42;22.30;77.70
1760;DHT22;877;46.266;20.062;2023-07-31T06:49:08;22.50;76.30
1760;DHT22;877;46.266;20.062;2023-07-31T06:51:35;22.60;75.70
1760;DHT22;877;46.266;20.062;2023-07-31T06:54:01;22.60;76.70
1760;DHT22;877;46.266;20.062;2023-07-31T06:56:28;22.40;76.40
1760;DHT22;877;46.266;20.062;2023-07-31T06:58:55;22.40;74.10
1760;DHT22;877;46.266;20.062;2023-07-31T07:01:21;22.50;73.80
1760;DHT22;877;46.266;20.062;2023-07-31T07:03:47;22.70;73.80
1760;DHT22;877;46.266;20.062;2023-07-31T07:06:12;23.00;72.90
1760;DHT22;877;46.266;20.062;2023-07-31T07:08:38;22.90;71.90
1760;DHT22;877;46.266;20.062;2023-07-31T07:11:04;22.90;69.90
1760;DHT22;877;46.266;20.062;2023-07-31T07:13:30;22.90;68.80
1760;DHT22;877;46.266;20.062;2023-07-31T07:15:56;23.10;68.90
1760;DHT22;877;46.266;20.062;2023-07-31T07:18:22;23.50;67.50
1760;DHT22;877;46.266;20.062;2023-07-31T07:20:52;23.50;65.60
1760;DHT22;877;46.266;20.062;2023-07-31T07:23:19;23.50;65.70
1760;DHT22;877;46.266;20.062;2023-07-31T07:25:46;23.80;65.50
1760;DHT22;877;46.266;20.062;2023-07-31T07:28:12;23.60;62.20
1760;DHT22;877;46.266;20.062;2023-07-31T07:30:38;23.60;63.40
1760;DHT22;877;46.266;20.062;2023-07-31T07:33:04;23.80;62.50
1760;DHT22;877;46.266;20.062;2023-07-31T07:35:33;24.10;62.40
1760;DHT22;877;46.266;20.062;2023-07-31T07:38:00;24.30;60.50
1760;DHT22;877;46.266;20.062;2023-07-31T07:40:27;24.30;60.60
1760;DHT22;877;46.266;20.062;2023-07-31T07:42:53;24.00;61.80
1760;DHT22;877;46.266;20.062;2023-07-31T07:45:19;24.00;62.50
1760;DHT22;877;46.266;20.062;2023-07-31T07:47:44;24.30;62.40
1760;DHT22;877;46.266;20.062;2023-07-31T07:50:10;24.80;59.70
1760;DHT22;877;46.266;20.062;2023-07-31T07:52:36;25.00;60.70
1760;DHT22;877;46.266;20.062;2023-07-31T07:55:03;25.50;56.00
1760;DHT22;877;46.266;20.062;2023-07-31T07:57:29;25.30;56.40
1760;DHT22;877;46.266;20.062;2023-07-31T07:59:55;25.00;55.20
1760;DHT22;877;46.266;20.062;2023-07-31T08:02:23;25.20;53.00
1760;DHT22;877;46.266;20.062;2023-07-31T08:04:49;25.80;55.80
1760;DHT22;877;46.266;20.062;2023-07-31T08:07:15;25.70;54.50
1760;DHT22;877;46.266;20.062;2023-07-31T08:09:40;24.80;56.00
1760;DHT22;877;46.266;20.062;2023-07-31T08:12:07;24.20;57.20
1760;DHT22;877;46.266;20.062;2023-07-31T08:14:33;24.10;56.00
1760;DHT22;877;46.266;20.062;2023-07-31T08:17:00;24.10;56.40
1760;DHT22;877;46.266;20.062;2023-07-31T08:19:26;24.20;57.00
1760;DHT22;877;46.266;20.062;2023-07-31T08:21:51;23.90;58.20
1760;DHT22;877;46.266;20.062;2023-07-31T08:24:17;23.80;57.90
1760;DHT22;877;46.266;20.062;2023-07-31T08:26:44;23.60;60.40
1760;DHT22;877;46.266;20.062;2023-07-31T08:29:09;23.60;60.30
1760;DHT22;877;46.266;20.062;2023-07-31T08:31:36;23.60;59.90
1760;DHT22;877;46.266;20.062;2023-07-31T08:34:03;23.50;60.60
1760;DHT22;877;46.266;20.062;2023-07-31T08:36:28;23.60;59.60
1760;DHT22;877;46.266;20.062;2023-07-31T08:38:54;23.70;60.00
1760;DHT22;877;46.266;20.062;2023-07-31T08:41:20;23.90;59.10
1760;DHT22;877;46.266;20.062;2023-07-31T08:43:46;24.30;57.30
1760;DHT22;877;46.266;20.062;2023-07-31T08:46:13;24.40;55.40
1760;DHT22;877;46.266;20.062;2023-07-31T08:48:42;24.30;54.90
1760;DHT22;877;46.266;20.062;2023-07-31T08:51:08;24.60;54.30
1760;DHT22;877;46.266;20.062;2023-07-31T08:53:34;24.90;54.20
1760;DHT22;877;46.266;20.062;2023-07-31T08:55:59;24.80;52.10
1760;DHT22;877;46.266;20.062;2023-07-31T08:58:27;25.30;50.50
1760;DHT22;877;46.266;20.062;2023-07-31T09:00:58;25.60;52.40
1760;DHT22;877;46.266;20.062;2023-07-31T09:03:26;24.90;51.30
1760;DHT22;877;46.266;20.062;2023-07-31T09:05:53;25.00;51.90
1760;DHT22;877;46.266;20.062;2023-07-31T09:08:21;25.20;49.80
1760;DHT22;877;46.266;20.062;2023-07-31T09:10:48;25.40;49.50
1760;DHT22;877;46.266;20.062;2023-07-31T09:13:16;25.20;49.00
1760;DHT22;877;46.266;20.062;2023-07-31T09:15:44;25.90;49.10
1760;DHT22;877;46.266;20.062;2023-07-31T09:18:11;25.40;43.70
1760;DHT22;877;46.266;20.062;2023-07-31T09:20:37;25.80;44.50
1760;DHT22;877;46.266;20.062;2023-07-31T09:23:12;25.60;43.80
1760;DHT22;877;46.266;20.062;2023-07-31T09:25:39;25.90;43.10
1760;DHT22;877;46.266;20.062;2023-07-31T09:28:07;26.10;42.50
1760;DHT22;877;46.266;20.062;2023-07-31T09:30:49;25.50;43.90
1760;DHT22;877;46.266;20.062;2023-07-31T09:33:17;26.80;42.80
1760;DHT22;877;46.266;20.062;2023-07-31T09:35:43;27.10;43.00
1760;DHT22;877;46.266;20.062;2023-07-31T09:38:11;27.30;41.00
1760;DHT22;877;46.266;20.062;2023-07-31T09:40:39;26.90;42.70
1760;DHT22;877;46.266;20.062;2023-07-31T09:43:07;26.10;43.20
1760;DHT22;877;46.266;20.062;2023-07-31T09:45:37;26.00;41.20
1760;DHT22;877;46.266;20.062;2023-07-31T09:48:03;26.20;43.60
1760;DHT22;877;46.266;20.062;2023-07-31T09:50:32;26.10;43.60
1760;DHT22;877;46.266;20.062;2023-07-31T09:52:59;26.50;42.00
1760;DHT22;877;46.266;20.062;2023-07-31T09:55:25;27.50;40.90
1760;DHT22;877;46.266;20.062;2023-07-31T09:57:51;27.70;39.50
1760;DHT22;877;46.266;20.062;2023-07-31T10:00:18;27.70;39.80
1760;DHT22;877;46.266;20.062;2023-07-31T10:02:46;26.80;40.80
1760;DHT22;877;46.266;20.062;2023-07-31T10:05:15;26.30;43.50
1760;DHT22;877;46.266;20.062;2023-07-31T10:07:49;26.00;43.10
1760;DHT22;877;46.266;20.062;2023-07-31T10:10:16;27.20;42.00
1760;DHT22;877;46.266;20.062;2023-07-31T10:12:44;27.00;42.50
1760;DHT22;877;46.266;20.062;2023-07-31T10:15:11;26.10;42.50
1760;DHT22;877;46.266;20.062;2023-07-31T10:17:37;26.50;43.20
1760;DHT22;877;46.266;20.062;2023-07-31T10:20:04;26.00;43.40
1760;DHT22;877;46.266;20.062;2023-07-31T10:22:32;26.70;44.10
1760;DHT22;877;46.266;20.062;2023-07-31T10:24:59;26.40;43.10
1760;DHT22;877;46.266;20.062;2023-07-31T10:27:25;26.30;42.40
1760;DHT22;877;46.266;20.062;2023-07-31T10:29:54;26.50;42.70
1760;DHT22;877;46.266;20.062;2023-07-31T10:32:21;27.00;41.30
1760;DHT22;877;46.266;20.062;2023-07-31T10:34:48;26.20;43.60
1760;DHT22;877;46.266;20.062;2023-07-31T10:37:25;26.90;40.40
1760;DHT22;877;46.266;20.062;2023-07-31T10:42:28;26.60;43.20
1760;DHT22;877;46.266;20.062;2023-07-31T10:44:59;27.10;42.90
1760;DHT22;877;46.266;20.062;2023-07-31T10:47:26;26.10;42.20
1760;DHT22;877;46.266;20.062;2023-07-31T10:49:55;25.90;42.00
1760;DHT22;877;46.266;20.062;2023-07-31T10:52:37;27.10;39.70
1760;DHT22;877;46.266;20.062;2023-07-31T10:55:16;26.80;39.70
1760;DHT22;877;46.266;20.062;2023-07-31T10:57:48;26.60;41.60
1760;DHT22;877;46.266;20.062;2023-07-31T11:00:29;26.80;41.70
1760;DHT22;877;46.266;20.062;2023-07-31T11:02:59;26.70;41.20
1760;DHT22;877;46.266;20.062;2023-07-31T11:06:03;27.30;40.50
1760;DHT22;877;46.266;20.062;2023-07-31T11:08:30;26.70;41.50
1760;DHT22;877;46.266;20.062;2023-07-31T11:13:34;26.40;38.90
1760;DHT22;877;46.266;20.062;2023-07-31T11:16:04;26.50;39.70
1760;DHT22;877;46.266;20.062;2023-07-31T11:18:30;27.40;40.00
1760;DHT22;877;46.266;20.062;2023-07-31T11:20:56;26.80;40.50
1760;DHT22;877;46.266;20.062;2023-07-31T11:23:23;27.00;38.90
1760;DHT22;877;46.266;20.062;2023-07-31T11:25:49;26.40;38.70
1760;DHT22;877;46.266;20.062;2023-07-31T11:28:17;26.40;39.00
1760;DHT22;877;46.266;20.062;2023-07-31T11:30:45;26.60;39.30
1760;DHT22;877;46.266;20.062;2023-07-31T11:33:13;27.20;39.80
1760;DHT22;877;46.266;20.062;2023-07-31T11:35:47;27.60;39.80
1760;DHT22;877;46.266;20.062;2023-07-31T11:38:24;26.80;40.30
1760;DHT22;877;46.266;20.062;2023-07-31T11:40:55;26.70;40.80
1760;DHT22;877;46.266;20.062;2023-07-31T11:43:22;26.50;40.40
1760;DHT22;877;46.266;20.062;2023-07-31T11:45:49;26.80;40.40
1760;DHT22;877;46.266;20.062;2023-07-31T11:48:23;27.20;40.10
1760;DHT22;877;46.266;20.062;2023-07-31T11:50:54;26.80;38.60
1760;DHT22;877;46.266;20.062;2023-07-31T11:55:59;26.60;38.90
1760;DHT22;877;46.266;20.062;2023-07-31T11:58:26;27.20;39.60
1760;DHT22;877;46.266;20.062;2023-07-31T12:00:53;26.50;40.60
1760;DHT22;877;46.266;20.062;2023-07-31T12:03:19;26.60;40.60
1760;DHT22;877;46.266;20.062;2023-07-31T12:05:47;26.70;39.90
1760;DHT22;877;46.266;20.062;2023-07-31T12:08:13;27.00;40.40
1760;DHT22;877;46.266;20.062;2023-07-31T12:10:39;27.10;40.80
1760;DHT22;877;46.266;20.062;2023-07-31T12:13:08;26.40;40.20
1760;DHT22;877;46.266;20.062;2023-07-31T12:15:43;26.90;41.20
1760;DHT22;877;46.266;20.062;2023-07-31T12:18:15;27.30;39.70
1760;DHT22;877;46.266;20.062;2023-07-31T12:20:42;26.90;40.50
1760;DHT22;877;46.266;20.062;2023-07-31T12:23:13;27.60;40.00
1760;DHT22;877;46.266;20.062;2023-07-31T12:25:39;27.00;39.70
1760;DHT22;877;46.266;20.062;2023-07-31T12:28:06;27.70;39.30
1760;DHT22;877;46.266;20.062;2023-07-31T12:30:34;26.90;39.10
1760;DHT22;877;46.266;20.062;2023-07-31T12:33:04;27.60;38.60
1760;DHT22;877;46.266;20.062;2023-07-31T12:35:38;27.00;39.30
1760;DHT22;877;46.266;20.062;2023-07-31T12:38:05;27.10;38.60
1760;DHT22;877;46.266;20.062;2023-07-31T12:40:32;27.60;39.00
1760;DHT22;877;46.266;20.062;2023-07-31T12:43:00;27.30;38.70
1760;DHT22;877;46.266;20.062;2023-07-31T12:45:29;27.80;39.80
1760;DHT22;877;46.266;20.062;2023-07-31T12:47:55;27.40;40.60
1760;DHT22;877;46.266;20.062;2023-07-31T12:50:21;27.20;38.60
1760;DHT22;877;46.266;20.062;2023-07-31T12:52:46;27.90;39.60
1760;DHT22;877;46.266;20.062;2023-07-31T12:55:12;28.50;38.60
1760;DHT22;877;46.266;20.062;2023-07-31T12:57:39;28.60;37.60
1760;DHT22;877;46.266;20.062;2023-07-31T13:00:06;27.80;39.90
1760;DHT22;877;46.266;20.062;2023-07-31T13:02:32;27.80;37.70
1760;DHT22;877;46.266;20.062;2023-07-31T13:04:59;27.50;38.90
1760;DHT22;877;46.266;20.062;2023-07-31T13:07:25;28.30;36.80
1760;DHT22;877;46.266;20.062;2023-07-31T13:09:51;29.40;36.50
1760;DHT22;877;46.266;20.062;2023-07-31T13:12:17;28.30;37.20
1760;DHT22;877;46.266;20.062;2023-07-31T13:14:44;27.50;37.50
1760;DHT22;877;46.266;20.062;2023-07-31T13:17:09;27.30;39.60
1760;DHT22;877;46.266;20.062;2023-07-31T13:19:35;28.30;36.70
1760;DHT22;877;46.266;20.062;2023-07-31T13:22:01;28.60;37.30
1760;DHT22;877;46.266;20.062;2023-07-31T13:24:27;27.60;36.60
1760;DHT22;877;46.266;20.062;2023-07-31T13:26:53;27.60;38.00
1760;DHT22;877;46.266;20.062;2023-07-31T13:29:19;28.70;35.60
1760;DHT22;877;46.266;20.062;2023-07-31T13:31:45;28.60;36.90
1760;DHT22;877;46.266;20.062;2023-07-31T13:34:11;28.30;36.80
1760;DHT22;877;46.266;20.062;2023-07-31T13:36:38;28.80;38.50
1760;DHT22;877;46.266;20.062;2023-07-31T13:39:04;29.40;34.00
1760;DHT22;877;46.266;20.062;2023-07-31T13:41:30;29.10;35.40
1760;DHT22;877;46.266;20.062;2023-07-31T13:43:55;29.20;35.00
1760;DHT22;877;46.266;20.062;2023-07-31T13:46:21;29.40;34.40
1760;DHT22;877;46.266;20.062;2023-07-31T13:48:47;28.80;36.80
1760;DHT22;877;46.266;20.062;2023-07-31T13:51:13;29.10;36.70
1760;DHT22;877;46.266;20.062;2023-07-31T13:53:38;28.50;37.20
1760;DHT22;877;46.266;20.062;2023-07-31T13:56:04;28.90;35.10
1760;DHT22;877;46.266;20.062;2023-07-31T13:58:30;29.20;35.80
1760;DHT22;877;46.266;20.062;2023-07-31T14:00:56;28.40;37.00
1760;DHT22;877;46.266;20.062;2023-07-31T14:03:22;29.50;34.80
1760;DHT22;877;46.266;20.062;2023-07-31T14:05:47;28.60;35.90
1760;DHT22;877;46.266;20.062;2023-07-31T14:08:13;29.30;36.60
1760;DHT22;877;46.266;20.062;2023-07-31T14:10:39;29.50;35.90
1760;DHT22;877;46.266;20.062;2023-07-31T14:13:05;29.00;36.30
1760;DHT22;877;46.266;20.062;2023-07-31T14:15:33;28.60;37.70
1760;DHT22;877;46.266;20.062;2023-07-31T14:18:01;28.70;37.00
1760;DHT22;877;46.266;20.062;2023-07-31T14:20:28;29.80;36.60
1760;DHT22;877;46.266;20.062;2023-07-31T14:22:55;30.90;34.10
1760;DHT22;877;46.266;20.062;2023-07-31T14:25:21;30.60;33.90
1760;DHT22;877;46.266;20.062;2023-07-31T14:27:46;30.00;35.40
1760;DHT22;877;46.266;20.062;2023-07-31T14:30:12;29.50;36.00
1760;DHT22;877;46.266;20.062;2023-07-31T14:32:38;29.60;35.70
1760;DHT22;877;46.266;20.062;2023-07-31T14:35:04;29.50;35.80
1760;DHT22;877;46.266;20.062;2023-07-31T14:37:43;29.50;35.90
1760;DHT22;877;46.266;20.062;2023-07-31T14:40:11;29.20;34.90
1760;DHT22;877;46.266;20.062;2023-07-31T14:42:37;29.60;35.00
1760;DHT22;877;46.266;20.062;2023-07-31T14:45:04;30.10;33.10
1760;DHT22;877;46.266;20.062;2023-07-31T14:47:30;30.40;32.70
1760;DHT22;877;46.266;20.062;2023-07-31T14:49:57;30.20;34.00
1760;DHT22;877;46.266;20.062;2023-07-31T14:52:23;29.80;35.10
1760;DHT22;877;46.266;20.062;2023-07-31T14:54:49;28.80;36.40
1760;DHT22;877;46.266;20.062;2023-07-31T14:57:15;30.40;35.50
1760;DHT22;877;46.266;20.062;2023-07-31T14:59:41;31.00;33.70
1760;DHT22;877;46.266;20.062;2023-07-31T15:02:08;29.70;34.40
1760;DHT22;877;46.266;20.062;2023-07-31T15:04:34;30.30;33.70
1760;DHT22;877;46.266;20.062;2023-07-31T15:07:00;30.40;34.00
1760;DHT22;877;46.266;20.062;2023-07-31T15:09:26;29.70;35.00
1760;DHT22;877;46.266;20.062;2023-07-31T15:11:52;29.70;35.80
1760;DHT22;877;46.266;20.062;2023-07-31T15:14:18;30.30;35.50
1760;DHT22;877;46.266;20.062;2023-07-31T15:16:44;30.00;35.10
1760;DHT22;877;46.266;20.062;2023-07-31T15:19:10;29.10;37.20
1760;DHT22;877;46.266;20.062;2023-07-31T15:21:39;29.10;36.40
1760;DHT22;877;46.266;20.062;2023-07-31T15:24:05;29.50;35.60
1760;DHT22;877;46.266;20.062;2023-07-31T15:26:31;28.70;37.40
1760;DHT22;877;46.266;20.062;2023-07-31T15:29:05;28.90;37.80
1760;DHT22;877;46.266;20.062;2023-07-31T15:31:43;28.80;37.20
1760;DHT22;877;46.266;20.062;2023-07-31T15:34:09;28.40;37.30
1760;DHT22;877;46.266;20.062;2023-07-31T15:36:35;28.60;38.30
1760;DHT22;877;46.266;20.062;2023-07-31T15:39:01;28.50;38.10
1760;DHT22;877;46.266;20.062;2023-07-31T15:41:27;28.90;37.30
1760;DHT22;877;46.266;20.062;2023-07-31T15:43:55;28.90;36.50
1760;DHT22;877;46.266;20.062;2023-07-31T15:46:21;29.50;36.40
1760;DHT22;877;46.266;20.062;2023-07-31T15:48:47;29.70;36.20
1760;DHT22;877;46.266;20.062;2023-07-31T15:51:13;30.70;36.40
1760;DHT22;877;46.266;20.062;2023-07-31T15:53:39;29.70;36.90
1760;DHT22;877;46.266;20.062;2023-07-31T15:56:06;30.20;35.40
1760;DHT22;877;46.266;20.062;2023-07-31T15:58:31;29.80;35.80
1760;DHT22;877;46.266;20.062;2023-07-31T16:00:58;28.80;38.70
1760;DHT22;877;46.266;20.062;2023-07-31T16:03:24;29.50;36.70
1760;DHT22;877;46.266;20.062;2023-07-31T16:05:50;30.90;35.30
1760;DHT22;877;46.266;20.062;2023-07-31T16:08:15;31.80;34.20
1760;DHT22;877;46.266;20.062;2023-07-31T16:10:41;32.40;33.00
1760;DHT22;877;46.266;20.062;2023-07-31T16:13:07;31.80;32.90
1760;DHT22;877;46.266;20.062;2023-07-31T16:15:33;31.60;31.80